createdAt,value
2019-05-22T00:04:18.358Z,3.08
2019-05-22T00:09:24.692Z,3.10
2019-05-22T00:14:29.526Z,3.45
2019-05-22T00:19:36.822Z,3.00
2019-05-22T00:24:44.394Z,3.00
2019-05-22T00:29:51.306Z,3.05
2019-05-22T00:34:56.906Z,2.67
2019-05-22T00:40:04.166Z,2.65
2019-05-22T00:45:13.041Z,3.17
2019-05-22T00:50:22.328Z,3.42
2019-05-22T00:55:33.968Z,3.25
2019-05-22T01:00:49.732Z,3.40
2019-05-22T01:05:55.628Z,3.50
2019-05-22T01:11:01.226Z,3.72
2019-05-22T01:16:07.573Z,3.75
2019-05-22T01:21:15.058Z,4.40
2019-05-22T01:26:21.574Z,4.08
2019-05-22T01:31:27.887Z,3.77
2019-05-22T01:36:35.230Z,3.65
2019-05-22T01:41:41.851Z,4.47
2019-05-22T01:46:46.417Z,3.33
2019-05-22T01:51:51.509Z,3.25
2019-05-22T01:56:57.787Z,3.50
2019-05-22T02:02:04.525Z,3.47
2019-05-22T02:07:10.029Z,2.90
2019-05-22T02:12:28.111Z,3.08
2019-05-22T02:17:35.761Z,3.62
2019-05-22T02:22:40.940Z,3.60
2019-05-22T02:27:47.541Z,3.35
2019-05-22T02:32:53.077Z,3.72
2019-05-22T02:37:58.862Z,4.12
2019-05-22T02:43:03.856Z,3.65
2019-05-22T02:48:09.563Z,3.80
2019-05-22T02:53:15.074Z,5.20
2019-05-22T02:58:21.250Z,4.05
2019-05-22T03:03:26.991Z,3.80
2019-05-22T03:08:54.671Z,3.50
2019-05-22T03:14:03.664Z,4.62
2019-05-22T03:19:10.622Z,5.80
2019-05-22T03:24:16.215Z,6.12
2019-05-22T03:29:24.141Z,6.12
2019-05-22T03:34:29.160Z,6.78
2019-05-22T03:39:34.907Z,6.83
2019-05-22T03:44:41.049Z,6.55
2019-05-22T03:49:46.779Z,6.10
2019-05-22T03:54:52.524Z,5.92
2019-05-22T03:59:57.882Z,4.03
2019-05-22T04:05:03.270Z,4.90
2019-05-22T04:10:10.479Z,4.47
2019-05-22T04:15:15.822Z,4.70
2019-05-22T04:20:22.015Z,7.47
2019-05-22T04:25:26.956Z,5.08
2019-05-22T04:30:32.394Z,5.30
2019-05-22T04:35:40.355Z,4.92
2019-05-22T04:40:48.954Z,6.87
2019-05-22T04:45:54.198Z,5.58
2019-05-22T04:51:02.240Z,6.95
2019-05-22T04:56:07.347Z,5.45
2019-05-22T05:01:12.175Z,5.65
2019-05-22T05:06:18.359Z,6.12
2019-05-22T05:11:23.003Z,5.28
2019-05-22T05:16:27.680Z,7.58
2019-05-22T05:21:32.489Z,6.30
2019-05-22T05:26:37.694Z,5.47
2019-05-22T05:31:42.457Z,5.60
2019-05-22T05:36:47.753Z,5.85
2019-05-22T05:41:53.001Z,4.60
2019-05-22T05:46:57.829Z,4.37
2019-05-22T05:52:03.897Z,4.58
2019-05-22T05:57:38.665Z,5.53
2019-05-22T06:02:56.059Z,4.50
2019-05-22T06:07:49.940Z,5.72
2019-05-22T06:12:54.725Z,6.47
2019-05-22T06:18:28.076Z,7.78
2019-05-22T06:23:42.472Z,5.95
2019-05-22T06:28:47.994Z,6.25
2019-05-22T06:33:52.676Z,6.70
2019-05-22T06:39:00.941Z,6.22
2019-05-22T06:44:36.923Z,5.90
2019-05-22T06:49:43.972Z,5.17
2019-05-22T06:54:49.017Z,4.90
2019-05-22T07:00:11.301Z,3.40
2019-05-22T07:05:00.632Z,3.40
2019-05-22T07:10:06.981Z,3.08
2019-05-22T07:15:23.189Z,3.30
2019-05-22T07:20:31.113Z,2.77
2019-05-22T07:25:37.581Z,2.45
2019-05-22T07:30:42.347Z,1.17
2019-05-22T07:36:07.745Z,1.92
2019-05-22T07:40:54.089Z,1.00
2019-05-22T07:45:58.978Z,1.70
2019-05-22T07:51:04.050Z,1.20
2019-05-22T07:56:10.306Z,4.78
2019-05-22T08:01:18.201Z,5.30
2019-05-22T08:06:23.083Z,5.28
2019-05-22T08:11:28.032Z,4.60
2019-05-22T08:16:33.842Z,4.28
2019-05-22T08:21:39.173Z,4.20
2019-05-22T08:26:53.811Z,3.20
2019-05-22T08:31:50.899Z,2.77
2019-05-22T08:36:55.667Z,2.90
2019-05-22T08:42:02.127Z,2.90
2019-05-22T08:47:08.354Z,2.22
2019-05-22T08:52:22.905Z,1.60
2019-05-22T08:57:21.088Z,1.75
2019-05-22T09:02:25.982Z,1.75
2019-05-22T09:07:31.719Z,1.80
2019-05-22T09:12:36.625Z,2.17
2019-05-22T09:17:41.177Z,1.70
2019-05-22T09:22:46.711Z,1.90
2019-05-22T09:27:52.101Z,1.80
2019-05-22T09:32:58.214Z,1.47
2019-05-22T09:38:02.966Z,1.60
2019-05-22T09:43:07.869Z,1.47
2019-05-22T09:48:13.028Z,2.12
2019-05-22T09:53:18.127Z,1.67
2019-05-22T09:58:23.282Z,1.15
2019-05-22T10:03:28.273Z,1.00
2019-05-22T10:08:33.673Z,1.37
2019-05-22T10:13:38.353Z,1.80
2019-05-22T10:18:42.978Z,1.40
2019-05-22T10:23:47.880Z,1.27
2019-05-22T10:28:53.237Z,1.25
2019-05-22T10:33:57.937Z,0.93
2019-05-22T10:39:03.584Z,1.10
2019-05-22T10:44:08.587Z,1.90
2019-05-22T10:49:13.660Z,1.10
2019-05-22T10:54:18.367Z,0.90
2019-05-22T10:59:23.511Z,1.30
2019-05-22T11:04:29.760Z,1.30
2019-05-22T11:09:35.673Z,1.77
2019-05-22T11:14:40.632Z,1.12
2019-05-22T11:19:45.423Z,0.82
2019-05-22T11:24:50.158Z,0.80
2019-05-22T11:29:54.915Z,1.17
2019-05-22T11:34:59.586Z,0.50
2019-05-22T11:40:08.859Z,1.05
2019-05-22T11:45:16.325Z,0.90
2019-05-22T11:50:23.714Z,1.15
2019-05-22T11:55:44.292Z,1.20
2019-05-22T12:00:35.991Z,0.60
2019-05-22T12:05:40.774Z,1.20
2019-05-22T12:10:45.843Z,1.00
2019-05-22T12:15:50.673Z,1.25
2019-05-22T12:20:57.249Z,0.53
2019-05-22T12:26:01.880Z,0.90
2019-05-22T12:31:07.427Z,0.80
2019-05-22T12:36:14.162Z,0.93
2019-05-22T12:41:20.976Z,0.72
2019-05-22T12:46:27.262Z,0.90
2019-05-22T12:51:32.991Z,0.80
2019-05-22T12:56:37.910Z,0.50
2019-05-22T13:01:46.655Z,2.67
2019-05-22T13:06:52.235Z,1.50
2019-05-22T13:11:59.410Z,1.52
2019-05-22T13:17:06.361Z,1.07
2019-05-22T13:22:16.540Z,0.80
2019-05-22T13:27:22.761Z,0.78
2019-05-22T13:32:29.256Z,0.70
2019-05-22T13:37:34.277Z,0.60
2019-05-22T13:42:40.379Z,1.55
2019-05-22T13:47:45.036Z,0.70
2019-05-22T13:52:50.281Z,0.82
2019-05-22T13:57:55.440Z,0.55
2019-05-22T14:03:00.444Z,0.90
2019-05-22T14:08:08.194Z,0.90
2019-05-22T14:13:14.575Z,0.80
2019-05-22T14:18:19.613Z,0.72
2019-05-22T14:23:24.341Z,0.60
2019-05-22T14:28:30.727Z,1.30
2019-05-22T14:33:39.777Z,0.70
2019-05-22T14:38:43.215Z,0.80
2019-05-22T14:43:48.003Z,0.93
2019-05-22T14:48:52.735Z,0.70
2019-05-22T14:53:58.664Z,1.07
2019-05-22T14:59:04.794Z,1.07
2019-05-22T15:04:09.535Z,0.80
2019-05-22T15:09:14.298Z,0.78
2019-05-22T15:14:18.945Z,0.72
2019-05-22T15:19:24.097Z,1.32
2019-05-22T15:24:29.688Z,1.35
2019-05-22T15:29:34.328Z,1.05
2019-05-22T15:34:39.710Z,1.10
2019-05-22T15:39:45.110Z,0.70
2019-05-22T15:44:51.438Z,2.47
2019-05-22T15:49:56.668Z,0.88
2019-05-22T15:55:03.136Z,0.70
2019-05-22T16:00:10.502Z,1.17
2019-05-22T16:05:18.410Z,1.98
2019-05-22T16:10:23.958Z,2.20
2019-05-22T16:15:30.630Z,11.63
2019-05-22T16:20:37.414Z,1.52
2019-05-22T16:25:42.901Z,2.00
2019-05-22T16:30:47.999Z,1.80
2019-05-22T16:35:53.433Z,2.70
2019-05-22T16:40:58.448Z,1.95
2019-05-22T16:46:03.741Z,2.75
2019-05-22T16:51:09.947Z,2.75
2019-05-22T16:56:14.961Z,2.52
2019-05-22T17:01:21.796Z,2.60
2019-05-22T17:06:27.119Z,2.50
2019-05-22T17:11:33.354Z,3.30
2019-05-22T17:16:39.845Z,2.98
2019-05-22T17:21:46.073Z,3.72
2019-05-22T17:26:52.613Z,2.70
2019-05-22T17:31:58.402Z,2.37
2019-05-22T17:37:09.713Z,5.35
2019-05-22T17:42:20.852Z,4.33
2019-05-22T17:47:28.081Z,5.12
2019-05-22T17:52:32.798Z,6.10
2019-05-22T17:57:37.706Z,6.10
2019-05-22T18:02:43.947Z,6.30
2019-05-22T18:07:48.952Z,7.30
2019-05-22T18:12:54.003Z,7.58
2019-05-22T18:17:58.627Z,5.97
2019-05-22T18:23:04.209Z,4.95
2019-05-22T18:28:10.442Z,2.05
2019-05-22T18:33:16.279Z,1.15
2019-05-22T18:38:20.820Z,0.90
2019-05-22T18:43:25.362Z,3.17
2019-05-22T18:48:33.034Z,2.17
2019-05-22T18:53:36.453Z,1.85
2019-05-22T18:58:42.057Z,2.00
2019-05-22T19:03:46.653Z,1.77
2019-05-22T19:08:51.413Z,2.08
2019-05-22T19:13:56.421Z,2.45
2019-05-22T19:19:01.022Z,3.90
2019-05-22T19:24:05.913Z,2.90
2019-05-22T19:29:10.627Z,6.83
2019-05-22T19:34:17.086Z,3.15
2019-05-22T19:39:23.715Z,3.22
2019-05-22T19:44:29.112Z,1.80
2019-05-22T19:49:34.922Z,2.62
2019-05-22T19:54:45.667Z,2.65
2019-05-22T19:59:52.340Z,2.37
2019-05-22T20:05:00.408Z,2.87
2019-05-22T20:10:10.138Z,3.20
2019-05-22T20:15:16.104Z,3.58
2019-05-22T20:20:22.396Z,3.87
2019-05-22T20:25:28.359Z,7.97
2019-05-22T20:30:33.193Z,4.95
2019-05-22T20:35:38.155Z,4.50
2019-05-22T20:40:44.303Z,4.28
2019-05-22T20:45:51.171Z,6.40
2019-05-22T20:50:59.878Z,6.08
2019-05-22T20:56:05.423Z,5.42
2019-05-22T21:01:11.301Z,6.08
2019-05-22T21:06:17.252Z,5.60
2019-05-22T21:11:25.412Z,6.20
2019-05-22T21:16:30.759Z,5.70
2019-05-22T21:21:36.593Z,6.08
2019-05-22T21:26:42.736Z,5.08
2019-05-22T21:31:48.332Z,4.08
2019-05-22T21:36:53.973Z,3.55
2019-05-22T21:42:00.487Z,3.90
2019-05-22T21:47:06.747Z,3.08
2019-05-22T21:52:13.275Z,2.27
2019-05-22T21:57:18.574Z,2.15
2019-05-22T22:02:27.779Z,2.10
2019-05-22T22:07:35.224Z,2.25
2019-05-22T22:12:39.878Z,2.70
2019-05-22T22:17:46.370Z,3.02
2019-05-22T22:22:52.528Z,3.22
2019-05-22T22:27:58.328Z,3.52
2019-05-22T22:33:10.200Z,2.87
2019-05-22T22:38:15.989Z,2.90
2019-05-22T22:43:23.092Z,2.60
2019-05-22T22:48:32.390Z,2.35
2019-05-22T22:53:36.914Z,2.72
2019-05-22T22:58:42.649Z,2.20
2019-05-22T23:03:50.956Z,2.35
2019-05-22T23:08:55.961Z,2.30
2019-05-22T23:14:03.394Z,2.25
2019-05-22T23:19:11.330Z,3.10
2019-05-22T23:24:19.191Z,3.25
2019-05-22T23:29:25.098Z,2.65
2019-05-22T23:34:30.855Z,2.47
2019-05-22T23:39:36.365Z,2.67
2019-05-22T23:44:42.040Z,2.50
2019-05-22T23:49:46.965Z,2.52
2019-05-22T23:54:52.466Z,2.58
2019-05-22T23:59:58.978Z,2.15
